Terminal Aerodrome Forecast
Issued by NWS

Home | Current Version | Previous Version | Text Only | Print | Product List | Glossary On
Versions: 1 2 3 4 5 6 7 8 9 10 11 12 13
508
FTUS46 KSTO 201723
TAFMHR
TAF
KMHR 201723Z 2018/2118 18010KT P6SM SCT100
     FM202000 20010G17KT P6SM BKN050
     FM210500 15008KT P6SM BKN250=

USA.gov is the U.S. government's official web portal to all federal, state and local government web resources and services.